Wynne, AR

8:50 PM CDT on September 01, 2015 (GMT -0500)
South Edmonds - MacTown | | Change Station
CLOSE
Current Station
Personal Weather Station
Location: McCrory, AR
Elevation: 207 ft
Nearby Weather Stations

Elev 207 ft 35.27 °N, 91.20 °W | Updated 16 seconds ago

Partly Cloudy
Partly Cloudy
78.8 °F
Feels Like 83 °F
N
0.0
Wind Variable Wind from East
Gusts 0.0 mph

Today
High -- | Low -- °F
--% Chance of Precip.
Yesterday
High -- | Low -- °F
Precip. -- in
6:35 AM 7:30 PM
Waning Gibbous, 84% visible
Pressure 30.03 in
Visibility 10.0 miles
Clouds Few 200 ft
Heat Index 83 °F
Dew Point 77 °F
Humidity 94%
Rainfall 0.00 in
Snow Depth Not available.
UV 0.0 out of 12
Pollen 9.70 out of 12
Air Quality Not available.
Flu Activity Not available.
METAR KAWM 020053Z AUTO 00000KT 10SM FEW002 26/22 A3004 RMK AO2 SLP168 T02610222
Pressure 30.03 in
Visibility 10.0 miles
Clouds Few 200 ft
Heat Index 83 °F
Dew Point 77 °F
Humidity 94%
Rainfall 0.00 in
Snow Depth Not available.
UV 0.0 out of 12
Pollen 9.70 out of 12
Air Quality Not available.
Flu Activity Not available.
METAR KAWM 020053Z AUTO 00000KT 10SM FEW002 26/22 A3004 RMK AO2 SLP168 T02610222

10-Day Weather Forecast

×

Almanac

Astronomy

Sep. 01, 2015 Rise Set
Actual Time
Civil Twilight
Nautical Twilight
Astronomical Twilight
Moon
Length of Visible Light
Length of Day
Tomorrow will be .
, % of the Moon is Illuminated

Today's Extremes

State Highs State Lows

Community

WunderPhotos

Upload Photos

1,851,673 photos uploaded!

WunderBlogs® & News

Nearby

Air Quality

  Air Quality AQ Index Pollutant
Not available.

Snow Depth

Station Depth Elevation

Earthquake Activity

City Distance Mag. Time & Date
Minimum magnitude displayed is 2.5.

Coastal Water Temperatures

Place Temperature

Stations

Nearby Weather Stations

Station Location Temp. Windchill Dew Point Humidity Wind Precip. Elev Updated Type